Time;durP1;ratioP1;P1;durP2;ratioP2;P2;SDS_P1;SDS_P2;PMS_P1;PMS_P2;Temp;Humidity;BMP_temperature;BMP_pressure;BME280_temperature;BME280_humidity;BME280_pressure;Samples;Min_cycle;Max_cycle;Signal;HPM_P1;HPM_P2
2022/08/02 00:01:53;;;;;;;4.40;3.00;;;12.90;99.90;;;;;;6077782;23;20192;-91
2022/08/02 00:04:18;;;;;;;1.40;1.30;;;12.90;99.90;;;;;;6126238;23;20286;-92
2022/08/02 00:06:45;;;;;;;3.40;1.67;;;12.90;99.90;;;;;;6101800;23;20196;-92
2022/08/02 00:09:10;;;;;;;2.47;1.50;;;12.90;99.90;;;;;;6101613;23;20215;-93
2022/08/02 00:11:36;;;;;;;5.70;2.50;;;12.90;99.90;;;;;;6078356;23;20243;-93
2022/08/02 00:14:02;;;;;;;2.73;1.70;;;12.90;99.90;;;;;;6101721;23;20210;-92
2022/08/02 00:16:28;;;;;;;2.27;1.97;;;12.80;99.90;;;;;;6101990;23;20231;-92
2022/08/02 00:18:54;;;;;;;2.57;1.53;;;12.80;99.90;;;;;;6101954;23;20203;-92
2022/08/02 00:21:20;;;;;;;3.33;1.10;;;12.80;99.90;;;;;;6125937;23;20194;-92
2022/08/02 00:23:46;;;;;;;5.10;1.67;;;12.80;99.90;;;;;;6078325;23;20235;-92
2022/08/02 00:26:11;;;;;;;1.70;1.33;;;12.80;99.90;;;;;;6101467;23;20202;-92
2022/08/02 00:28:37;;;;;;;2.03;1.67;;;12.80;99.90;;;;;;6077447;23;20196;-93
2022/08/02 00:31:04;;;;;;;2.73;1.27;;;12.80;99.90;;;;;;6077402;23;20259;-92
2022/08/02 00:33:30;;;;;;;3.83;2.20;;;12.80;99.90;;;;;;6126109;23;20200;-91
2022/08/02 00:35:55;;;;;;;4.50;1.80;;;12.70;99.90;;;;;;6078499;23;20207;-92
2022/08/02 00:38:21;;;;;;;1.90;1.80;;;12.70;99.90;;;;;;6100985;23;20198;-93
2022/08/02 00:40:50;;;;;;;4.23;1.80;;;12.60;99.90;;;;;;6101501;23;20208;-94
2022/08/02 00:43:17;;;;;;;2.37;1.63;;;12.60;99.90;;;;;;6127270;23;20276;-93
2022/08/02 00:45:43;;;;;;;2.43;2.03;;;12.60;99.90;;;;;;6125421;23;20216;-92
2022/08/02 00:48:10;;;;;;;2.80;1.70;;;12.60;99.90;;;;;;6077385;23;20203;-91
2022/08/02 00:50:37;;;;;;;1.93;1.70;;;12.60;99.90;;;;;;6126045;23;20251;-90
2022/08/02 00:53:04;;;;;;;2.23;2.03;;;12.50;99.90;;;;;;6125521;23;20200;-92
2022/08/02 00:55:30;;;;;;;2.77;1.53;;;12.50;99.90;;;;;;6125536;23;20196;-91
2022/08/02 00:57:56;;;;;;;3.93;1.87;;;12.50;99.90;;;;;;6101544;23;20562;-92
2022/08/02 01:00:22;;;;;;;4.43;1.90;;;12.60;99.90;;;;;;6101361;23;20199;-91
2022/08/02 01:02:47;;;;;;;3.77;1.93;;;12.60;99.90;;;;;;6101972;23;20486;-92
2022/08/02 01:05:13;;;;;;;2.63;2.40;;;12.60;99.90;;;;;;6100906;23;20206;-92
2022/08/02 01:07:39;;;;;;;2.27;1.73;;;12.60;99.90;;;;;;6124948;23;20707;-92
2022/08/02 01:10:06;;;;;;;2.77;1.43;;;12.60;99.90;;;;;;6101509;23;20267;-92
2022/08/02 01:12:31;;;;;;;8.00;1.80;;;12.60;99.90;;;;;;6125217;23;20262;-92
2022/08/02 01:15:04;;;;;;;4.47;2.10;;;12.60;99.90;;;;;;6101889;23;20157;-91
2022/08/02 01:17:47;;;;;;;1.90;1.80;;;12.60;99.90;;;;;;6125344;23;20532;-92
2022/08/02 01:20:32;;;;;;;3.97;1.70;;;12.60;99.90;;;;;;6125411;23;20211;-92
2022/08/02 01:23:34;;;;;;;4.37;2.07;;;12.60;99.90;;;;;;6125390;23;20200;-91
2022/08/02 01:26:36;;;;;;;6.77;1.50;;;12.60;99.90;;;;;;6125320;23;20282;-91
2022/08/02 01:29:15;;;;;;;1.33;1.17;;;12.60;99.90;;;;;;6125368;23;20195;-92
2022/08/02 01:32:11;;;;;;;4.80;1.93;;;12.60;99.90;;;;;;6125300;23;20282;-92
2022/08/02 01:34:58;;;;;;;4.20;1.80;;;12.60;99.90;;;;;;6125277;23;20207;-92
2022/08/02 01:37:51;;;;;;;3.27;2.07;;;12.60;99.90;;;;;;6125233;23;20195;-91
2022/08/02 01:40:24;;;;;;;3.83;2.00;;;12.60;99.90;;;;;;6125014;23;20262;-91
2022/08/02 01:42:53;;;;;;;6.10;3.03;;;12.60;99.90;;;;;;6125251;23;20204;-91
2022/08/02 01:45:23;;;;;;;5.43;1.83;;;12.60;99.90;;;;;;6125083;23;20160;-92
2022/08/02 01:47:50;;;;;;;3.80;2.00;;;12.70;99.90;;;;;;6125782;23;20164;-92
2022/08/02 01:50:20;;;;;;;4.20;2.00;;;12.70;99.90;;;;;;6125042;23;20211;-92
2022/08/02 01:52:52;;;;;;;1.73;1.63;;;12.70;99.90;;;;;;6125012;23;20200;-92
2022/08/02 01:55:22;;;;;;;9.83;1.93;;;12.70;99.90;;;;;;6125087;23;20202;-89
2022/08/02 01:57:52;;;;;;;4.27;1.93;;;12.70;99.90;;;;;;6125167;23;20200;-91
2022/08/02 02:00:21;;;;;;;2.70;2.03;;;12.70;99.90;;;;;;6124563;23;20188;-92
2022/08/02 02:02:49;;;;;;;2.30;2.10;;;12.80;99.90;;;;;;6125377;23;20162;-92
2022/08/02 02:05:18;;;;;;;3.27;2.17;;;12.80;99.90;;;;;;6100924;23;20200;-91
2022/08/02 02:07:47;;;;;;;3.50;2.10;;;12.80;99.90;;;;;;6124642;23;20198;-92
2022/08/02 02:10:16;;;;;;;2.93;1.37;;;12.80;99.90;;;;;;6125337;23;20226;-92
2022/08/02 02:12:48;;;;;;;5.57;1.40;;;12.80;99.90;;;;;;6125051;23;20192;-92
2022/08/02 02:15:14;;;;;;;2.70;1.67;;;12.80;99.90;;;;;;6125179;23;20158;-92
2022/08/02 02:17:46;;;;;;;7.97;2.20;;;12.80;99.90;;;;;;6125699;23;20192;-90
2022/08/02 02:20:15;;;;;;;3.43;1.80;;;12.80;99.90;;;;;;6126556;23;20203;-92
2022/08/02 02:22:42;;;;;;;4.13;1.87;;;12.90;99.90;;;;;;6126991;23;20668;-91
2022/08/02 02:25:09;;;;;;;4.10;2.83;;;12.90;99.90;;;;;;6127306;23;20319;-92
2022/08/02 02:27:36;;;;;;;2.63;1.30;;;12.90;99.90;;;;;;6102752;23;20200;-90
2022/08/02 02:30:04;;;;;;;2.00;1.77;;;12.90;99.90;;;;;;6127857;23;20327;-92
2022/08/02 02:32:31;;;;;;;5.60;1.43;;;12.90;99.90;;;;;;6102403;23;20512;-92
2022/08/02 02:34:58;;;;;;;8.60;2.73;;;12.90;99.90;;;;;;6126717;23;20274;-91
2022/08/02 02:37:26;;;;;;;7.40;2.30;;;12.80;99.90;;;;;;6126793;23;20283;-91
2022/08/02 02:39:54;;;;;;;5.37;2.10;;;12.80;99.90;;;;;;6102346;23;20212;-91
2022/08/02 02:42:27;;;;;;;8.27;2.70;;;12.80;99.90;;;;;;6079046;23;20574;-92
2022/08/02 02:44:53;;;;;;;3.47;2.07;;;12.80;99.90;;;;;;6128691;23;20148;-92
2022/08/02 02:47:21;;;;;;;4.13;2.60;;;12.70;99.90;;;;;;6078557;23;20200;-90
2022/08/02 02:49:49;;;;;;;7.97;2.40;;;12.70;99.90;;;;;;6101324;23;20508;-92
2022/08/02 02:52:16;;;;;;;1.80;1.60;;;12.70;99.90;;;;;;6073821;23;20275;-92
2022/08/02 02:54:45;;;;;;;2.17;1.97;;;12.70;99.90;;;;;;6073699;23;20525;-92
2022/08/02 02:57:11;;;;;;;7.93;2.23;;;12.70;99.90;;;;;;6073188;23;20177;-92
2022/08/02 02:59:39;;;;;;;4.10;2.03;;;12.70;99.90;;;;;;6026882;23;20189;-91
2022/08/02 03:02:05;;;;;;;2.03;1.83;;;12.70;99.90;;;;;;6098450;23;20199;-91
2022/08/02 03:04:32;;;;;;;2.37;1.23;;;12.80;99.90;;;;;;6073715;23;20224;-91
2022/08/02 03:06:59;;;;;;;2.63;1.57;;;12.70;99.90;;;;;;6025815;23;20231;-92
2022/08/02 03:09:26;;;;;;;3.33;1.53;;;12.70;99.90;;;;;;6049428;23;20161;-92
2022/08/02 03:11:55;;;;;;;3.07;1.67;;;12.70;99.90;;;;;;6026438;23;20161;-91
2022/08/02 03:14:22;;;;;;;5.60;2.23;;;12.70;99.90;;;;;;6049168;23;20205;-91
2022/08/02 03:16:50;;;;;;;2.77;1.30;;;12.70;99.90;;;;;;6073289;23;20216;-92
2022/08/02 03:19:19;;;;;;;1.80;1.63;;;12.70;99.90;;;;;;6073061;23;20247;-93
2022/08/02 03:21:46;;;;;;;2.33;1.60;;;12.70;99.90;;;;;;6073537;23;20193;-92
2022/08/02 03:24:12;;;;;;;3.10;2.40;;;12.70;99.90;;;;;;6073227;23;20171;-91
2022/08/02 03:26:38;;;;;;;2.47;2.00;;;12.70;99.90;;;;;;6073936;23;20165;-90
2022/08/02 03:29:05;;;;;;;8.07;2.60;;;12.70;99.90;;;;;;6049052;23;20197;-92
2022/08/02 03:31:31;;;;;;;2.37;1.47;;;12.70;99.90;;;;;;6072955;23;20196;-92
2022/08/02 03:33:59;;;;;;;2.30;1.93;;;12.70;99.90;;;;;;6072835;23;20197;-92
2022/08/02 03:36:29;;;;;;;2.70;1.63;;;12.70;99.90;;;;;;6049291;23;20156;-90
2022/08/02 03:38:55;;;;;;;2.47;1.90;;;12.70;99.90;;;;;;6073419;23;20141;-92
2022/08/02 03:41:22;;;;;;;3.43;1.83;;;12.70;99.90;;;;;;6048931;23;20200;-92
2022/08/02 03:43:49;;;;;;;2.50;1.97;;;12.70;99.90;;;;;;6049001;23;20685;-93
2022/08/02 03:46:18;;;;;;;3.27;2.20;;;12.70;99.90;;;;;;6073143;23;20219;-91
2022/08/02 03:48:45;;;;;;;2.37;1.60;;;12.70;99.90;;;;;;6072816;23;20205;-92
2022/08/02 03:51:11;;;;;;;1.90;1.60;;;12.80;99.90;;;;;;6103285;23;20219;-93
2022/08/02 03:53:38;;;;;;;6.00;1.80;;;12.80;99.90;;;;;;6102589;23;20198;-92
2022/08/02 03:56:05;;;;;;;5.30;1.50;;;12.90;99.90;;;;;;6101797;23;20196;-91
2022/08/02 03:58:32;;;;;;;3.73;1.50;;;12.90;99.90;;;;;;6102171;23;20520;-91
2022/08/02 04:00:59;;;;;;;2.60;1.63;;;12.90;99.90;;;;;;6126027;23;20211;-92
2022/08/02 04:03:25;;;;;;;3.83;1.97;;;13.00;99.90;;;;;;6125962;23;20160;-91
2022/08/02 04:05:51;;;;;;;1.90;1.70;;;13.00;99.90;;;;;;6078878;23;20163;-91
2022/08/02 04:08:17;;;;;;;3.67;1.60;;;13.00;99.90;;;;;;6102103;23;20510;-92
2022/08/02 04:13:31;;;;;;;5.47;1.70;;;13.10;99.90;;;;;;6127732;23;20202;-92
2022/08/02 04:16:06;;;;;;;2.67;2.43;;;13.10;99.90;;;;;;6127617;23;20200;-92
2022/08/02 04:18:38;;;;;;;2.83;2.00;;;13.20;99.90;;;;;;6126532;23;20196;-92
2022/08/02 04:21:06;;;;;;;2.70;1.47;;;13.20;99.90;;;;;;6126691;23;20176;-90
2022/08/02 04:23:35;;;;;;;2.30;1.47;;;13.30;99.90;;;;;;6126403;23;20363;-91
2022/08/02 04:26:03;;;;;;;5.87;1.53;;;13.30;99.90;;;;;;6126116;23;20192;-92
2022/08/02 04:28:30;;;;;;;1.60;1.50;;;13.40;99.90;;;;;;6126377;23;20258;-92
2022/08/02 04:30:57;;;;;;;2.60;2.00;;;13.50;99.90;;;;;;6126101;23;20270;-92
2022/08/02 04:33:26;;;;;;;4.27;1.90;;;13.50;99.90;;;;;;6101649;23;20156;-92
2022/08/02 04:35:52;;;;;;;2.27;1.87;;;13.60;99.90;;;;;;6102400;23;20436;-90
2022/08/02 04:38:18;;;;;;;3.73;1.93;;;13.60;99.90;;;;;;6101461;23;21052;-92
2022/08/02 04:40:52;;;;;;;4.20;2.10;;;13.70;99.90;;;;;;6101254;23;20234;-90
2022/08/02 04:43:18;;;;;;;2.20;1.53;;;13.70;99.90;;;;;;6125678;23;20254;-91
2022/08/02 04:45:47;;;;;;;2.97;1.83;;;13.80;99.90;;;;;;6126119;23;20200;-90
2022/08/02 04:48:12;;;;;;;4.60;2.27;;;13.80;99.90;;;;;;6126415;23;20164;-91
2022/08/02 04:50:38;;;;;;;8.33;2.27;;;13.80;99.90;;;;;;6078212;23;20200;-92
2022/08/02 04:53:04;;;;;;;2.17;1.67;;;13.90;99.90;;;;;;6077209;23;20283;-89
2022/08/02 04:55:30;;;;;;;2.17;1.97;;;13.90;99.90;;;;;;6077810;23;20199;-89
2022/08/02 04:57:56;;;;;;;3.60;1.83;;;14.00;99.90;;;;;;6101189;23;20528;-89
2022/08/02 05:00:24;;;;;;;2.73;2.17;;;14.00;99.90;;;;;;6078110;23;20195;-90
2022/08/02 05:02:51;;;;;;;3.30;1.83;;;14.00;99.90;;;;;;6102444;23;20211;-89
2022/08/02 05:05:17;;;;;;;7.30;2.13;;;14.00;99.90;;;;;;6100141;23;20251;-89
2022/08/02 05:07:43;;;;;;;3.67;1.60;;;14.00;99.90;;;;;;6123798;23;20200;-89
2022/08/02 05:10:09;;;;;;;1.17;1.07;;;14.00;99.90;;;;;;6125455;23;20215;-89
2022/08/02 05:12:37;;;;;;;2.20;1.60;;;14.00;99.90;;;;;;6101226;23;20196;-90
2022/08/02 05:15:03;;;;;;;7.03;2.03;;;14.00;99.90;;;;;;6125682;23;20156;-89
2022/08/02 05:17:29;;;;;;;2.07;1.43;;;14.00;99.90;;;;;;6101190;23;20630;-88
2022/08/02 05:19:56;;;;;;;4.53;1.67;;;14.20;99.90;;;;;;6076816;23;20204;-89
2022/08/02 05:22:22;;;;;;;5.97;2.13;;;14.30;99.90;;;;;;6078015;23;20255;-89
2022/08/02 05:24:48;;;;;;;3.07;2.10;;;14.50;99.90;;;;;;6101102;23;20568;-90
2022/08/02 05:27:13;;;;;;;2.60;2.03;;;14.80;99.90;;;;;;6077397;23;20157;-89
2022/08/02 05:29:39;;;;;;;7.53;2.60;;;15.30;99.90;;;;;;6077548;23;20187;-89
2022/08/02 05:32:05;;;;;;;2.23;1.80;;;16.00;99.90;;;;;;6101029;23;20649;-89
2022/08/02 05:34:31;;;;;;;6.17;2.30;;;16.90;99.90;;;;;;6101055;23;20212;-89
2022/08/02 05:36:56;;;;;;;3.70;2.47;;;17.80;99.90;;;;;;6077246;23;20203;-88
2022/08/02 05:39:22;;;;;;;1.80;1.67;;;18.60;99.90;;;;;;6125186;23;20191;-88
2022/08/02 05:41:48;;;;;;;10.20;2.00;;;19.40;99.90;;;;;;6078014;23;20569;-88
2022/08/02 05:44:14;;;;;;;1.53;1.30;;;20.10;99.90;;;;;;6100669;23;20671;-89
2022/08/02 05:46:39;;;;;;;6.17;1.90;;;20.80;99.90;;;;;;6100695;23;20196;-89
2022/08/02 05:49:05;;;;;;;4.10;2.00;;;22.00;99.90;;;;;;6076796;23;20207;-90
2022/08/02 05:51:36;;;;;;;3.83;2.50;;;21.50;99.90;;;;;;6076881;23;20203;-89
2022/08/02 05:54:17;;;;;;;2.03;1.40;;;20.40;99.90;;;;;;6126035;23;20593;-88
2022/08/02 05:57:04;;;;;;;1.43;1.33;;;19.20;99.90;;;;;;6125701;23;20279;-89
2022/08/02 05:59:39;;;;;;;3.23;2.33;;;19.30;99.90;;;;;;6124791;23;20199;-88
2022/08/02 06:02:20;;;;;;;3.60;2.00;;;19.20;99.90;;;;;;6124820;23;20199;-88
2022/08/02 06:05:13;;;;;;;5.03;2.23;;;19.20;99.90;;;;;;6124996;23;20510;-88
2022/08/02 06:07:41;;;;;;;3.63;1.47;;;19.10;99.90;;;;;;6125779;23;20196;-88
2022/08/02 06:10:08;;;;;;;1.47;1.37;;;19.90;99.90;;;;;;6100371;23;20192;-88
2022/08/02 06:12:47;;;;;;;5.80;1.47;;;20.70;99.90;;;;;;6076951;23;20196;-89
2022/08/02 06:15:14;;;;;;;1.97;1.30;;;20.80;99.90;;;;;;6125053;23;20145;-88
2022/08/02 06:17:40;;;;;;;3.60;1.37;;;20.90;99.90;;;;;;6077851;23;20160;-88
2022/08/02 06:20:07;;;;;;;1.83;1.67;;;20.40;99.90;;;;;;6100054;23;20230;-88
2022/08/02 06:22:34;;;;;;;3.10;1.63;;;19.40;99.90;;;;;;6124148;23;20514;-88
2022/08/02 06:25:01;;;;;;;1.77;1.63;;;19.00;99.90;;;;;;6124475;23;20204;-89
2022/08/02 06:27:27;;;;;;;2.10;1.50;;;18.70;99.90;;;;;;6100787;23;20598;-88
2022/08/02 06:29:54;;;;;;;1.50;1.40;;;18.50;99.90;;;;;;6125574;23;20510;-88
2022/08/02 06:32:21;;;;;;;2.73;1.70;;;19.30;99.90;;;;;;6124688;23;20664;-89
2022/08/02 06:34:46;;;;;;;2.20;1.70;;;20.50;99.90;;;;;;6124494;23;20204;-90
2022/08/02 06:37:23;;;;;;;5.27;1.23;;;21.50;99.90;;;;;;6124802;23;20219;-91
2022/08/02 06:40:02;;;;;;;3.57;1.67;;;22.30;99.90;;;;;;6124785;23;20668;-89
2022/08/02 06:42:55;;;;;;;2.07;1.50;;;22.90;99.90;;;;;;6126396;23;20657;-90
2022/08/02 06:45:21;;;;;;;1.53;1.43;;;23.30;99.90;;;;;;6124784;23;20145;-89
2022/08/02 06:47:47;;;;;;;1.33;1.23;;;23.30;99.90;;;;;;6100792;23;20156;-89
2022/08/02 06:50:13;;;;;;;1.30;1.20;;;22.40;99.90;;;;;;6076621;23;20215;-89
2022/08/02 06:52:40;;;;;;;1.70;1.40;;;21.40;99.90;;;;;;6079017;23;20208;-87
2022/08/02 06:55:06;;;;;;;1.30;0.95;;;20.60;99.90;;;;;;6101036;23;20196;-88
2022/08/02 06:57:33;;;;;;;1.97;1.10;;;20.70;99.90;;;;;;6078931;23;20200;-89
2022/08/02 07:00:05;;;;;;;2.60;1.40;;;20.80;99.90;;;;;;6128024;23;20175;-90
2022/08/02 07:02:31;;;;;;;1.97;1.30;;;21.60;99.90;;;;;;6124915;23;20200;-88
2022/08/02 07:04:57;;;;;;;2.47;1.47;;;22.70;99.90;;;;;;6125217;23;20192;-89
2022/08/02 07:07:23;;;;;;;1.85;1.48;;;24.00;99.90;;;;;;6078223;23;20195;-89
2022/08/02 07:09:50;;;;;;;2.90;1.40;;;24.10;99.90;;;;;;6127634;23;20210;-88
2022/08/02 07:12:16;;;;;;;2.75;1.55;;;24.60;99.90;;;;;;6101779;23;20168;-88
2022/08/02 07:14:41;;;;;;;1.30;1.20;;;25.60;99.90;;;;;;6078916;23;20160;-88
2022/08/02 07:17:07;;;;;;;2.17;1.30;;;25.00;99.90;;;;;;6078025;23;20580;-88
2022/08/02 07:19:33;;;;;;;9.75;1.67;;;25.00;99.90;;;;;;6126401;23;20207;-87
2022/08/02 07:21:58;;;;;;;1.25;1.15;;;24.80;99.90;;;;;;6078019;23;20278;-87
2022/08/02 07:24:24;;;;;;;1.48;1.10;;;24.70;99.90;;;;;;6077532;23;20247;-87
2022/08/02 07:26:50;;;;;;;1.88;1.15;;;24.70;99.90;;;;;;6126596;23;20164;-87
2022/08/02 07:29:16;;;;;;;1.38;1.13;;;24.60;99.90;;;;;;6077346;23;20223;-87
2022/08/02 07:31:41;;;;;;;4.75;1.33;;;24.80;99.90;;;;;;6126376;23;20195;-88
2022/08/02 07:34:07;;;;;;;3.00;1.40;;;26.00;99.90;;;;;;6077246;23;20235;-88
2022/08/02 07:36:33;;;;;;;4.03;1.30;;;25.40;99.90;;;;;;6101881;23;20278;-88
2022/08/02 07:38:59;;;;;;;1.15;1.05;;;25.80;99.90;;;;;;6102250;23;20156;-89
2022/08/02 07:41:24;;;;;;;3.50;1.80;;;24.90;99.90;;;;;;6101961;23;20208;-90
2022/08/02 07:43:50;;;;;;;3.08;1.40;;;23.90;99.90;;;;;;6078685;23;20204;-90
2022/08/02 07:46:16;;;;;;;2.97;1.35;;;24.00;99.90;;;;;;6078461;23;20204;-90
2022/08/02 07:48:42;;;;;;;2.72;1.10;;;24.10;99.90;;;;;;6079649;23;20196;-89
2022/08/02 07:51:08;;;;;;;1.23;0.93;;;24.40;99.90;;;;;;6105004;23;20203;-88
2022/08/02 07:53:33;;;;;;;4.45;1.17;;;24.60;99.90;;;;;;6081467;23;20156;-89
2022/08/02 07:55:59;;;;;;;1.15;1.00;;;25.00;99.90;;;;;;6102254;23;20614;-88
2022/08/02 07:58:25;;;;;;;3.72;1.30;;;25.50;99.90;;;;;;6102902;23;20223;-88
2022/08/02 08:00:51;;;;;;;2.90;1.30;;;25.50;99.90;;;;;;6077863;23;20578;-89
2022/08/02 08:03:16;;;;;;;1.58;1.10;;;25.70;99.90;;;;;;6077381;23;20164;-89
2022/08/02 08:05:42;;;;;;;1.33;1.20;;;25.70;99.90;;;;;;6078710;23;20207;-89
2022/08/02 08:08:08;;;;;;;2.58;1.20;;;26.10;99.90;;;;;;6079131;23;20271;-89
2022/08/02 08:10:34;;;;;;;4.97;1.33;;;26.70;99.90;;;;;;6104941;23;20200;-89
2022/08/02 08:13:00;;;;;;;2.75;1.30;;;28.20;99.90;;;;;;6102800;23;20211;-88
2022/08/02 08:15:25;;;;;;;1.88;1.65;;;28.60;99.90;;;;;;6078820;23;20167;-89
2022/08/02 08:17:51;;;;;;;3.45;1.33;;;28.10;99.90;;;;;;6102400;23;20167;-87
2022/08/02 08:20:17;;;;;;;5.47;1.60;;;28.10;99.90;;;;;;6076759;23;20204;-88
2022/08/02 08:22:43;;;;;;;2.92;1.52;;;28.30;99.90;;;;;;6077368;23;20200;-88
2022/08/02 08:25:09;;;;;;;2.25;1.33;;;27.80;99.90;;;;;;6077091;23;20235;-87
2022/08/02 08:27:34;;;;;;;1.52;1.38;;;27.30;99.90;;;;;;6126259;23;20246;-88
2022/08/02 08:30:01;;;;;;;2.03;1.77;;;27.30;99.90;;;;;;6078977;23;20160;-88
2022/08/02 08:32:26;;;;;;;3.58;1.70;;;27.30;99.90;;;;;;6101356;23;20573;-88
2022/08/02 08:34:52;;;;;;;2.17;1.70;;;27.90;99.90;;;;;;6078003;23;20235;-88
2022/08/02 08:37:18;;;;;;;4.28;1.65;;;27.70;99.90;;;;;;6077334;23;20224;-87
2022/08/02 08:39:46;;;;;;;9.90;2.45;;;27.00;99.90;;;;;;6101352;23;20200;-88
2022/08/02 08:42:12;;;;;;;3.08;2.40;;;25.90;99.90;;;;;;6101580;23;20164;-89
2022/08/02 08:44:38;;;;;;;4.70;2.00;;;26.00;99.90;;;;;;6102134;23;20215;-88
2022/08/02 08:47:04;;;;;;;2.15;1.85;;;26.10;99.90;;;;;;6101601;23;20200;-88
2022/08/02 08:49:31;;;;;;;2.38;1.80;;;26.00;99.90;;;;;;6126631;23;20278;-88
2022/08/02 08:52:02;;;;;;;4.88;2.10;;;26.50;99.90;;;;;;6125432;23;20283;-87
2022/08/02 08:54:29;;;;;;;5.90;2.08;;;26.90;99.90;;;;;;6126504;23;20289;-88
2022/08/02 08:56:57;;;;;;;4.20;1.90;;;27.00;99.90;;;;;;6125936;23;20156;-89
2022/08/02 08:59:23;;;;;;;3.50;2.05;;;27.10;99.90;;;;;;6100626;23;20250;-89
2022/08/02 09:01:50;;;;;;;3.00;1.75;;;27.40;99.90;;;;;;6100732;23;20286;-86
2022/08/02 09:04:16;;;;;;;2.88;2.17;;;28.00;99.90;;;;;;6101176;23;20250;-86
2022/08/02 09:06:42;;;;;;;6.43;2.08;;;28.60;99.90;;;;;;6126036;23;20212;-86
2022/08/02 09:09:08;;;;;;;2.88;2.17;;;28.40;99.90;;;;;;6076596;23;20231;-87
2022/08/02 09:11:34;;;;;;;7.85;2.35;;;27.80;99.90;;;;;;6100764;23;20160;-87
2022/08/02 09:14:01;;;;;;;2.45;2.05;;;27.90;99.90;;;;;;6076290;23;20230;-86
2022/08/02 09:16:31;;;;;;;4.45;2.13;;;27.30;99.90;;;;;;6124608;23;20530;-88
2022/08/02 09:18:57;;;;;;;6.55;2.85;;;27.20;99.90;;;;;;6125156;23;20268;-87
2022/08/02 09:21:23;;;;;;;6.25;2.45;;;27.10;99.90;;;;;;6100870;23;20680;-85
2022/08/02 09:23:51;;;;;;;5.35;2.78;;;27.10;99.90;;;;;;6126066;23;20153;-87
2022/08/02 09:26:22;;;;;;;5.63;3.30;;;27.50;99.90;;;;;;6124614;23;20670;-87
2022/08/02 09:28:52;;;;;;;3.90;2.70;;;27.60;99.90;;;;;;6101347;23;20207;-88
2022/08/02 09:31:21;;;;;;;5.65;3.20;;;26.90;99.90;;;;;;6125267;23;20196;-88
2022/08/02 09:33:58;;;;;;;3.75;3.13;;;26.40;99.90;;;;;;6125155;23;20262;-87
2022/08/02 09:36:25;;;;;;;4.97;3.05;;;26.10;99.90;;;;;;6125531;23;20203;-86
2022/08/02 09:39:03;;;;;;;4.07;3.40;;;26.10;99.90;;;;;;6125579;23;20153;-87
2022/08/02 09:41:31;;;;;;;5.07;3.80;;;25.70;99.90;;;;;;6124966;23;20513;-87
2022/08/02 09:43:59;;;;;;;6.47;3.70;;;25.20;99.90;;;;;;6126081;23;20625;-87
2022/08/02 09:46:28;;;;;;;6.07;4.38;;;25.10;99.90;;;;;;6113159;23;20206;-88
2022/08/02 09:48:56;;;;;;;4.90;3.53;;;24.90;99.90;;;;;;6126574;23;20204;-88
2022/08/02 09:51:23;;;;;;;7.95;4.32;;;24.90;99.90;;;;;;6106026;23;20335;-87
2022/08/02 09:53:51;;;;;;;4.10;3.55;;;25.20;99.90;;;;;;6073420;23;20148;-87
2022/08/02 09:56:18;;;;;;;4.40;3.38;;;25.50;99.90;;;;;;6049746;23;20261;-87
2022/08/02 09:58:45;;;;;;;5.93;3.42;;;26.20;99.90;;;;;;6025001;23;20275;-88
2022/08/02 10:01:11;;;;;;;7.28;3.30;;;26.80;99.90;;;;;;6099004;23;20212;-90
2022/08/02 10:03:51;;;;;;;7.50;3.80;;;26.70;99.90;;;;;;6051776;23;20630;-90
2022/08/02 10:06:17;;;;;;;3.88;3.22;;;27.40;99.90;;;;;;6077345;23;20156;-90
2022/08/02 10:08:43;;;;;;;5.10;2.78;;;28.00;99.90;;;;;;6028843;23;20594;-91
2022/08/02 10:11:09;;;;;;;5.85;4.35;;;28.00;99.90;;;;;;6052323;23;20232;-89
2022/08/02 10:13:35;;;;;;;5.97;4.15;;;27.00;99.90;;;;;;6028896;23;20260;-89
2022/08/02 10:16:02;;;;;;;5.38;3.20;;;26.90;99.90;;;;;;6077099;23;20206;-90
2022/08/02 10:18:29;;;;;;;7.43;3.92;;;26.70;99.90;;;;;;6028831;23;20196;-89
2022/08/02 10:20:56;;;;;;;5.50;4.20;;;26.10;99.90;;;;;;6076536;23;20633;-89
2022/08/02 10:23:26;;;;;;;6.82;4.03;;;25.70;99.90;;;;;;6053306;23;20211;-89
2022/08/02 10:25:53;;;;;;;7.25;4.10;;;25.90;99.90;;;;;;6077033;23;20216;-90
2022/08/02 10:28:25;;;;;;;5.22;4.18;;;26.20;99.90;;;;;;6050268;23;20240;-89
2022/08/02 10:30:54;;;;;;;6.22;4.22;;;26.40;99.90;;;;;;6074750;23;20639;-88
2022/08/02 10:33:20;;;;;;;6.75;5.07;;;26.60;99.90;;;;;;6051366;23;20165;-87
2022/08/02 10:35:50;;;;;;;6.68;4.28;;;26.80;99.90;;;;;;6049165;23;20156;-88
2022/08/02 10:38:17;;;;;;;8.13;4.93;;;26.80;99.90;;;;;;6096154;23;20215;-88
2022/08/02 10:40:51;;;;;;;8.30;5.45;;;26.70;99.90;;;;;;6072185;23;20254;-88
2022/08/02 10:43:36;;;;;;;8.90;4.97;;;26.20;99.90;;;;;;6073195;23;20762;-89
2022/08/02 10:46:20;;;;;;;8.73;6.18;;;25.80;99.90;;;;;;6073874;23;20201;-92
2022/08/02 10:49:08;;;;;;;9.32;5.57;;;25.70;99.90;;;;;;6075152;23;20299;-89
2022/08/02 10:51:55;;;;;;;12.80;5.82;;;25.50;99.90;;;;;;6113731;23;20211;-89
2022/08/02 10:54:41;;;;;;;11.50;6.07;;;25.40;99.90;;;;;;6131396;23;20191;-90
2022/08/02 10:57:21;;;;;;;6.75;4.32;;;25.70;99.90;;;;;;6130031;23;20168;-88
2022/08/02 10:59:49;;;;;;;9.55;5.35;;;25.70;99.90;;;;;;6128703;23;20175;-88
2022/08/02 11:02:33;;;;;;;8.30;5.97;;;25.40;99.90;;;;;;6102954;23;20196;-89
2022/08/02 11:05:01;;;;;;;13.23;6.00;;;25.70;99.90;;;;;;6127188;23;20187;-88
2022/08/02 11:07:34;;;;;;;9.88;6.85;;;26.30;99.90;;;;;;6127430;23;20638;-88
2022/08/02 11:10:29;;;;;;;7.05;5.45;;;26.40;99.90;;;;;;6127673;23;20219;-89
2022/08/02 11:13:18;;;;;;;10.68;5.72;;;26.10;99.90;;;;;;6127552;23;20282;-88
2022/08/02 11:16:03;;;;;;;9.15;5.85;;;26.00;99.90;;;;;;6131247;23;20247;-90
2022/08/02 11:18:53;;;;;;;8.32;5.28;;;25.50;99.90;;;;;;6129480;23;20196;-90
2022/08/02 11:21:23;;;;;;;10.30;6.07;;;25.00;99.90;;;;;;6130026;23;20184;-89
2022/08/02 11:23:50;;;;;;;11.00;5.78;;;24.80;99.90;;;;;;6129625;23;20184;-89
2022/08/02 11:26:31;;;;;;;9.50;5.65;;;24.80;99.90;;;;;;6127801;23;20577;-88
2022/08/02 11:29:02;;;;;;;10.43;5.32;;;24.80;99.90;;;;;;6130958;23;20207;-90
2022/08/02 11:31:36;;;;;;;8.73;6.03;;;25.00;99.90;;;;;;6129727;23;20207;-90
2022/08/02 11:34:03;;;;;;;8.05;5.78;;;25.10;99.90;;;;;;6129457;23;20259;-89
2022/08/02 11:36:30;;;;;;;9.57;5.47;;;24.90;99.90;;;;;;6126300;23;20192;-89
2022/08/02 11:39:13;;;;;;;10.20;5.85;;;24.50;99.90;;;;;;6104098;23;20156;-89
2022/08/02 11:41:39;;;;;;;11.95;6.53;;;24.40;99.90;;;;;;6129064;23;20183;-91
2022/08/02 11:44:05;;;;;;;8.32;5.57;;;24.30;99.90;;;;;;6129660;23;20200;-89
2022/08/02 11:46:31;;;;;;;8.35;5.65;;;24.30;99.90;;;;;;6104180;23;20306;-88
2022/08/02 11:49:09;;;;;;;9.60;6.40;;;24.40;99.90;;;;;;6104350;23;20211;-89
2022/08/02 11:51:35;;;;;;;9.80;6.38;;;24.10;99.90;;;;;;6105491;23;20234;-89
2022/08/02 11:54:01;;;;;;;8.57;6.35;;;23.90;99.90;;;;;;6081147;23;20167;-90
2022/08/02 11:56:29;;;;;;;9.10;6.50;;;23.90;99.90;;;;;;6078188;23;20196;-89
2022/08/02 11:59:04;;;;;;;10.50;6.32;;;23.80;99.90;;;;;;6128922;23;20649;-90
2022/08/02 12:01:31;;;;;;;10.85;6.65;;;23.80;99.90;;;;;;6133002;23;20286;-89
2022/08/02 12:03:59;;;;;;;10.07;6.78;;;23.70;99.90;;;;;;6106361;23;20227;-89
2022/08/02 12:06:29;;;;;;;14.23;7.03;;;23.50;99.90;;;;;;6107078;23;20191;-89
2022/08/02 12:09:05;;;;;;;11.32;7.38;;;23.50;99.90;;;;;;6104915;23;20239;-90
2022/08/02 12:11:32;;;;;;;12.25;7.50;;;23.50;99.90;;;;;;6128803;23;20195;-90
2022/08/02 12:13:58;;;;;;;10.88;6.70;;;23.50;99.90;;;;;;6129685;23;20196;-90
2022/08/02 12:19:18;;;;;;;16.10;6.57;;;23.50;99.90;;;;;;6130217;23;20207;-90
2022/08/02 12:21:46;;;;;;;10.75;6.93;;;23.60;99.90;;;;;;6081964;23;20283;-90
2022/08/02 12:24:12;;;;;;;11.20;6.85;;;23.60;99.90;;;;;;6103188;23;20169;-88
2022/08/02 12:26:46;;;;;;;11.25;6.78;;;23.50;99.90;;;;;;6079859;23;20175;-91
2022/08/02 12:29:12;;;;;;;12.43;7.00;;;23.40;99.90;;;;;;6128278;23;20661;-89
2022/08/02 12:31:46;;;;;;;12.75;7.07;;;23.60;99.90;;;;;;6106312;23;20279;-89
2022/08/02 12:34:19;;;;;;;8.82;6.32;;;23.70;99.90;;;;;;6128437;23;20575;-88
2022/08/02 12:37:08;;;;;;;11.07;7.38;;;23.90;99.90;;;;;;6130743;23;20203;-89
2022/08/02 12:39:42;;;;;;;10.07;6.13;;;24.00;99.90;;;;;;6107540;23;20672;-89
2022/08/02 12:42:11;;;;;;;12.75;7.88;;;24.50;99.90;;;;;;6102973;23;20159;-89
2022/08/02 12:44:48;;;;;;;13.73;5.75;;;24.80;99.90;;;;;;6127041;23;20160;-88
2022/08/02 12:47:14;;;;;;;12.27;6.05;;;25.20;99.90;;;;;;6127933;23;20653;-90
2022/08/02 12:49:40;;;;;;;6.88;5.60;;;25.30;99.90;;;;;;6104715;23;20203;-89
2022/08/02 12:52:20;;;;;;;8.00;4.53;;;25.20;99.90;;;;;;6080095;23;20219;-90
2022/08/02 12:54:47;;;;;;;5.20;4.43;;;25.40;99.90;;;;;;6103758;23;20200;-91
2022/08/02 12:57:18;;;;;;;11.18;4.43;;;25.50;99.90;;;;;;6103728;23;20168;-89
2022/08/02 12:59:51;;;;;;;5.00;3.88;;;26.00;99.90;;;;;;6127830;23;20533;-89
2022/08/02 13:02:17;;;;;;;5.70;3.95;;;25.80;99.90;;;;;;6126990;23;20192;-89